Time;durP1;ratioP1;P1;durP2;ratioP2;P2;SDS_P1;SDS_P2;PMS_P1;PMS_P2;Temp;Humidity;BMP_temperature;BMP_pressure;BME280_temperature;BME280_humidity;BME280_pressure;Samples;Min_cycle;Max_cycle;Signal;HPM_P1;HPM_P2
2023/01/28 00:00:29;;;;;;;7.13;2.45;;;;;;;2.01;100.00;101541.88;4963220;28;20513;-70
2023/01/28 00:02:54;;;;;;;8.10;2.83;;;;;;;1.99;100.00;101549.63;4963505;28;20081;-70
2023/01/28 00:05:21;;;;;;;5.60;2.42;;;;;;;1.98;100.00;101558.25;4962907;28;20035;-70
2023/01/28 00:07:48;;;;;;;8.93;3.20;;;;;;;2.01;100.00;101557.50;4965558;28;20058;-71
2023/01/28 00:10:14;;;;;;;6.35;2.20;;;;;;;1.97;100.00;101565.19;4946321;28;20035;-69
2023/01/28 00:12:39;;;;;;;7.78;3.70;;;;;;;1.96;100.00;101558.22;4965149;28;20085;-71
2023/01/28 00:15:05;;;;;;;8.43;2.80;;;;;;;1.96;100.00;101560.81;4944820;28;20043;-71
2023/01/28 00:17:30;;;;;;;7.60;3.33;;;;;;;1.80;100.00;101558.31;4964208;28;20122;-70
2023/01/28 00:19:56;;;;;;;6.72;2.50;;;;;;;1.72;100.00;101570.09;4964020;28;20050;-70
2023/01/28 00:22:21;;;;;;;8.25;2.60;;;;;;;1.71;100.00;101564.00;4962180;28;20047;-71
2023/01/28 00:24:47;;;;;;;6.80;2.95;;;;;;;1.74;100.00;101569.34;4964456;28;20035;-70
2023/01/28 00:27:12;;;;;;;7.70;2.35;;;;;;;1.70;100.00;101564.84;4962198;28;20142;-70
2023/01/28 00:29:37;;;;;;;6.65;2.47;;;;;;;1.66;100.00;101565.50;4965400;28;20540;-71
2023/01/28 00:32:04;;;;;;;9.00;2.45;;;;;;;1.57;100.00;101561.56;4961396;28;20487;-70
2023/01/28 00:34:30;;;;;;;7.70;2.58;;;;;;;1.63;100.00;101567.06;4964557;28;20045;-70
2023/01/28 00:36:58;;;;;;;7.47;3.15;;;;;;;1.64;100.00;101576.66;4945706;28;20118;-71
2023/01/28 00:39:24;;;;;;;6.32;2.38;;;;;;;1.66;100.00;101577.63;4957292;28;20082;-71
2023/01/28 00:41:50;;;;;;;8.90;2.83;;;;;;;1.63;100.00;101575.78;4964497;28;20383;-71
2023/01/28 00:44:16;;;;;;;5.65;2.55;;;;;;;1.56;100.00;101568.47;4961188;28;20066;-71
2023/01/28 00:46:41;;;;;;;7.30;2.53;;;;;;;1.48;100.00;101570.72;4964090;28;20070;-71
2023/01/28 00:49:06;;;;;;;6.28;2.40;;;;;;;1.48;100.00;101570.72;4964492;28;20117;-70
2023/01/28 00:51:33;;;;;;;5.03;2.13;;;;;;;1.40;100.00;101569.47;4944279;28;20056;-71
2023/01/28 00:53:58;;;;;;;6.03;2.60;;;;;;;1.37;100.00;101565.84;4946605;28;20150;-71
2023/01/28 00:56:25;;;;;;;9.90;2.90;;;;;;;1.36;100.00;101574.44;4944052;28;20039;-71
2023/01/28 00:58:51;;;;;;;8.27;2.53;;;;;;;1.29;100.00;101579.38;4962978;28;20034;-71
2023/01/28 01:01:22;;;;;;;6.07;2.17;;;;;;;1.28;100.00;101574.09;4963126;28;20031;-70
2023/01/28 01:03:56;;;;;;;5.17;2.37;;;;;;;1.21;100.00;101575.50;4964421;28;20513;-70
2023/01/28 01:06:23;;;;;;;6.82;2.75;;;;;;;1.12;100.00;101580.25;4954293;28;20034;-70
2023/01/28 01:08:48;;;;;;;6.25;2.20;;;;;;;1.09;100.00;101585.31;4951695;28;20121;-70
2023/01/28 01:11:15;;;;;;;7.35;2.25;;;;;;;1.05;100.00;101588.59;4956607;28;20031;-70
2023/01/28 01:13:41;;;;;;;8.10;2.75;;;;;;;1.04;100.00;101586.78;4964204;28;20062;-70
2023/01/28 01:16:12;;;;;;;8.75;2.38;;;;;;;0.96;100.00;101590.72;4961450;28;20034;-70
2023/01/28 01:18:40;;;;;;;5.13;2.15;;;;;;;0.92;100.00;101591.38;4954921;28;20039;-69
2023/01/28 01:21:12;;;;;;;7.15;2.40;;;;;;;0.96;100.00;101588.13;4966025;28;20042;-70
2023/01/28 01:23:38;;;;;;;7.25;2.88;;;;;;;0.86;100.00;101584.16;4966007;28;20133;-72
2023/01/28 01:26:04;;;;;;;6.03;2.55;;;;;;;0.84;100.00;101588.41;4966474;28;20082;-72
2023/01/28 01:28:30;;;;;;;7.40;2.50;;;;;;;0.73;100.00;101589.56;4955343;28;20061;-71
2023/01/28 01:31:01;;;;;;;7.15;2.42;;;;;;;0.64;100.00;101579.59;4949481;28;20490;-72
2023/01/28 01:33:28;;;;;;;6.38;1.92;;;;;;;0.68;100.00;101586.72;4968110;28;20037;-72
2023/01/28 01:35:54;;;;;;;7.50;2.30;;;;;;;0.68;100.00;101585.84;4960381;28;20424;-72
2023/01/28 01:38:19;;;;;;;5.68;2.15;;;;;;;0.52;100.00;101581.56;4955461;28;20039;-72
2023/01/28 01:40:45;;;;;;;7.13;2.05;;;;;;;0.47;100.00;101585.63;4950219;28;20545;-71
2023/01/28 01:43:18;;;;;;;6.20;2.57;;;;;;;0.40;100.00;101582.72;4964507;28;20071;-72
2023/01/28 01:45:49;;;;;;;6.90;2.43;;;;;;;0.23;100.00;101586.13;4967142;28;20032;-72
2023/01/28 01:48:21;;;;;;;6.80;2.30;;;;;;;0.13;100.00;101587.38;4946948;28;20031;-72
2023/01/28 01:51:01;;;;;;;5.93;2.00;;;;;;;0.03;100.00;101598.09;4946650;29;20035;-72
2023/01/28 01:53:28;;;;;;;8.17;2.20;;;;;;;-0.09;100.00;101595.72;4964244;28;20023;-73
2023/01/28 01:56:01;;;;;;;6.10;2.33;;;;;;;-0.19;100.00;101593.41;4948754;28;20034;-72
2023/01/28 01:58:30;;;;;;;5.67;2.50;;;;;;;-0.33;100.00;101591.78;4947381;28;20035;-72
2023/01/28 02:00:57;;;;;;;5.20;2.60;;;;;;;-0.45;100.00;101600.69;4957407;28;20037;-72
2023/01/28 02:03:30;;;;;;;8.13;2.43;;;;;;;-0.53;100.00;101601.94;4967437;28;20121;-72
2023/01/28 02:05:55;;;;;;;7.83;2.73;;;;;;;-0.58;100.00;101602.50;4946737;28;20523;-72
2023/01/28 02:08:21;;;;;;;5.80;2.30;;;;;;;-0.64;100.00;101610.81;4967359;28;20035;-72
2023/01/28 02:10:53;;;;;;;7.53;2.60;;;;;;;-0.67;100.00;101606.38;4967378;28;20466;-71
2023/01/28 02:13:24;;;;;;;10.40;2.33;;;;;;;-0.72;100.00;101609.50;4947692;28;20053;-72
2023/01/28 02:15:50;;;;;;;5.90;2.43;;;;;;;-0.80;100.00;101608.19;4965717;28;20030;-72
2023/01/28 02:18:16;;;;;;;11.13;3.80;;;;;;;-0.89;100.00;101614.63;4964213;28;20113;-72
2023/01/28 02:21:14;;;;;;;6.00;2.10;;;;;;;-0.93;100.00;101615.25;4947467;28;20057;-72
2023/01/28 02:24:27;;;;;;;5.50;2.63;;;;;;;-1.02;100.00;101625.09;4952716;28;20126;-72
2023/01/28 02:27:10;;;;;;;4.17;2.00;;;;;;;-1.09;100.00;101617.75;4964817;28;20442;-72
2023/01/28 02:29:54;;;;;;;4.10;1.50;;;;;;;-1.11;100.00;101622.84;4944328;28;20039;-72
2023/01/28 02:32:28;;;;;;;7.40;2.20;;;;;;;-1.19;100.00;101623.22;4949625;28;20034;-72
2023/01/28 02:35:14;;;;;;;8.00;2.63;;;;;;;-1.25;100.00;101621.16;4944333;28;20450;-72
2023/01/28 02:37:49;;;;;;;12.70;2.10;;;;;;;-1.28;100.00;101627.84;4945607;28;20489;-72
2023/01/28 02:41:00;;;;;;;6.97;2.20;;;;;;;-1.33;100.00;101623.28;4947526;28;20031;-72
2023/01/28 02:43:39;;;;;;;7.03;2.13;;;;;;;-1.37;100.00;101623.91;4966171;28;20134;-72
2023/01/28 02:49:13;;;;;;;9.63;2.27;;;;;;;-1.35;100.00;101631.78;4955115;28;20043;-72
2023/01/28 02:52:00;;;;;;;4.63;1.93;;;;;;;-1.37;100.00;101630.78;4963019;28;20035;-72
2023/01/28 02:54:36;;;;;;;6.70;1.63;;;;;;;-1.37;100.00;101636.84;4947979;28;20027;-72
2023/01/28 02:57:12;;;;;;;5.27;2.23;;;;;;;-1.29;100.00;101636.41;4945655;28;20035;-72
2023/01/28 02:59:53;;;;;;;5.17;1.90;;;;;;;-1.16;100.00;101633.75;4949027;28;20093;-72
2023/01/28 03:02:21;;;;;;;7.00;2.17;;;;;;;-1.07;100.00;101631.72;4959303;28;20046;-72
2023/01/28 03:04:57;;;;;;;8.83;2.40;;;;;;;-0.94;100.00;101631.63;4948449;28;20035;-72
2023/01/28 03:07:26;;;;;;;5.20;1.83;;;;;;;-0.80;100.00;101634.09;4946715;28;20079;-72
2023/01/28 03:09:57;;;;;;;7.70;2.43;;;;;;;-0.70;100.00;101631.22;4953827;28;20126;-72
2023/01/28 03:38:21;;;;;;;5.13;2.03;;;;;;;-0.38;100.00;101645.13;4949539;28;20022;-72
2023/01/28 03:41:01;;;;;;;5.27;2.07;;;;;;;-0.31;100.00;101647.25;4953225;28;20035;-72
2023/01/28 03:43:28;;;;;;;6.73;1.70;;;;;;;-0.27;100.00;101649.19;4942669;28;20035;-71
2023/01/28 03:45:54;;;;;;;6.07;2.23;;;;;;;-0.27;100.00;101652.66;4946248;28;20450;-71
2023/01/28 03:48:23;;;;;;;5.97;2.77;;;;;;;-0.28;100.00;101656.09;4948470;28;20041;-71
2023/01/28 03:50:50;;;;;;;5.90;1.87;;;;;;;-0.34;100.00;101653.16;4965688;28;20018;-71
2023/01/28 03:53:16;;;;;;;4.17;1.73;;;;;;;-0.43;100.00;101662.13;4963522;28;20036;-71
2023/01/28 03:55:48;;;;;;;6.33;2.33;;;;;;;-0.62;100.00;101666.25;4944443;28;20042;-71
2023/01/28 03:58:15;;;;;;;5.23;2.27;;;;;;;-0.76;100.00;101661.97;4964967;28;20486;-71
2023/01/28 04:00:42;;;;;;;6.10;2.03;;;;;;;-0.86;100.00;101670.94;4935518;28;20031;-71
2023/01/28 04:03:15;;;;;;;5.47;1.80;;;;;;;-0.89;100.00;101673.34;4943247;28;20086;-73
2023/01/28 04:05:44;;;;;;;4.80;1.87;;;;;;;-1.01;100.00;101676.09;4947356;28;20502;-71
2023/01/28 04:08:10;;;;;;;7.13;2.47;;;;;;;-1.15;100.00;101669.22;4947779;28;20387;-71
2023/01/28 04:10:55;;;;;;;7.90;2.30;;;;;;;-1.40;100.00;101667.75;4948244;28;20580;-73
2023/01/28 04:13:25;;;;;;;9.13;2.13;;;;;;;-1.59;100.00;101672.63;4947760;28;20039;-73
2023/01/28 04:15:51;;;;;;;10.33;3.63;;;;;;;-1.75;100.00;101675.06;4945585;28;20057;-73
2023/01/28 04:18:18;;;;;;;7.00;2.20;;;;;;;-1.86;100.00;101683.06;4948619;28;20031;-73
2023/01/28 04:20:47;;;;;;;7.73;2.20;;;;;;;-1.94;100.00;101681.66;4947142;28;20426;-73
2023/01/28 04:23:14;;;;;;;7.17;2.30;;;;;;;-2.01;100.00;101687.28;4943549;28;20047;-74
2023/01/28 04:25:40;;;;;;;4.47;2.00;;;;;;;-2.11;100.00;101680.63;4962887;28;20379;-73
2023/01/28 04:28:08;;;;;;;8.13;2.40;;;;;;;-2.17;100.00;101680.25;4947734;28;20035;-72
2023/01/28 04:30:33;;;;;;;9.30;3.17;;;;;;;-2.25;100.00;101682.34;4938367;28;20169;-72
2023/01/28 04:33:12;;;;;;;7.60;2.70;;;;;;;-2.28;100.00;101692.50;4940634;28;20048;-72
2023/01/28 04:36:06;;;;;;;4.80;1.90;;;;;;;-2.32;100.00;101695.66;4936059;28;20569;-74
2023/01/28 04:38:41;;;;;;;6.67;2.27;;;;;;;-2.38;100.00;101703.03;4957322;28;20065;-74
2023/01/28 04:41:25;;;;;;;5.07;2.17;;;;;;;-2.44;100.00;101698.38;4958452;28;20520;-74
2023/01/28 04:43:52;;;;;;;6.97;2.27;;;;;;;-2.46;100.00;101691.31;4944174;28;20556;-74
2023/01/28 04:46:45;;;;;;;7.90;2.90;;;;;;;-2.52;100.00;101693.47;4942350;28;20070;-74
2023/01/28 04:49:34;;;;;;;8.37;2.30;;;;;;;-2.58;100.00;101693.97;4941333;28;20040;-75
2023/01/28 04:52:11;;;;;;;8.43;3.40;;;;;;;-2.61;100.00;101690.31;4952566;28;20465;-75
2023/01/28 04:54:52;;;;;;;7.97;2.40;;;;;;;-2.65;100.00;101689.19;4943283;28;20038;-75
2023/01/28 04:57:18;;;;;;;6.50;2.00;;;;;;;-2.72;100.00;101692.19;4943795;28;20037;-75
2023/01/28 04:59:44;;;;;;;4.33;2.13;;;;;;;-2.76;100.00;101703.09;4943855;28;20031;-75
2023/01/28 05:02:10;;;;;;;8.47;2.83;;;;;;;-2.80;100.00;101699.44;4940919;28;20038;-74
2023/01/28 05:04:35;;;;;;;7.10;2.40;;;;;;;-2.85;100.00;101690.47;4939582;28;20031;-74
2023/01/28 05:07:01;;;;;;;7.83;2.80;;;;;;;-2.90;100.00;101702.19;4929018;28;20085;-74
2023/01/28 05:09:30;;;;;;;8.77;2.10;;;;;;;-2.93;100.00;101702.00;4960258;28;20040;-74
2023/01/28 05:11:56;;;;;;;8.97;2.57;;;;;;;-2.95;100.00;101703.56;4961407;28;20077;-74
2023/01/28 05:14:22;;;;;;;8.03;2.00;;;;;;;-2.98;100.00;101709.44;4948632;28;20030;-74
2023/01/28 05:16:58;;;;;;;7.70;2.40;;;;;;;-3.01;100.00;101710.88;4950719;29;20054;-74
2023/01/28 05:19:23;;;;;;;4.97;1.87;;;;;;;-3.06;100.00;101705.44;4964227;28;20479;-74
2023/01/28 05:21:48;;;;;;;7.60;2.50;;;;;;;-3.09;100.00;101705.25;4940365;28;20114;-74
2023/01/28 05:24:37;;;;;;;7.57;2.60;;;;;;;-3.12;100.00;101711.09;4952363;28;20043;-74
2023/01/28 05:27:02;;;;;;;6.10;2.10;;;;;;;-3.09;100.00;101721.63;4946634;28;20039;-74
2023/01/28 05:29:28;;;;;;;8.57;2.77;;;;;;;-3.02;100.00;101728.09;4943335;29;20031;-74
2023/01/28 05:31:53;;;;;;;5.20;2.03;;;;;;;-2.96;100.00;101727.59;4945849;28;20061;-75
2023/01/28 05:34:19;;;;;;;8.80;2.97;;;;;;;-2.90;100.00;101728.03;4939574;29;20050;-75
2023/01/28 05:36:44;;;;;;;6.53;2.03;;;;;;;-2.81;100.00;101732.91;4949369;28;20077;-75
2023/01/28 05:39:31;;;;;;;4.10;1.77;;;;;;;-2.59;100.00;101735.22;4959846;28;20161;-75
2023/01/28 05:41:56;;;;;;;6.70;2.70;;;;;;;-2.38;100.00;101736.66;4944473;28;20077;-75
2023/01/28 05:44:22;;;;;;;3.90;1.53;;;;;;;-2.18;100.00;101740.50;4945667;28;20121;-74
2023/01/28 05:47:12;;;;;;;9.40;2.67;;;;;;;-2.03;100.00;101743.19;4943089;28;20042;-75
2023/01/28 05:49:50;;;;;;;6.73;2.87;;;;;;;-1.92;100.00;101743.88;4957206;28;20039;-73
2023/01/28 05:52:38;;;;;;;7.23;2.33;;;;;;;-1.80;100.00;101744.66;4927955;28;20039;-73
2023/01/28 05:55:09;;;;;;;5.33;1.87;;;;;;;-1.69;100.00;101747.91;4938613;28;20406;-73
2023/01/28 05:57:35;;;;;;;5.60;2.13;;;;;;;-1.58;100.00;101752.06;4948945;28;20062;-73
2023/01/28 06:00:01;;;;;;;7.67;2.97;;;;;;;-1.55;100.00;101753.16;4946538;28;20077;-74
2023/01/28 06:02:26;;;;;;;6.13;2.47;;;;;;;-1.48;100.00;101763.91;4948388;28;20050;-73
2023/01/28 06:04:55;;;;;;;8.43;2.47;;;;;;;-1.40;100.00;101762.69;4947382;28;20067;-73
2023/01/28 06:07:20;;;;;;;8.20;2.90;;;;;;;-1.32;100.00;101759.75;4951165;28;20035;-73
2023/01/28 06:09:47;;;;;;;6.37;1.90;;;;;;;-1.17;100.00;101772.75;4953634;28;20125;-72
2023/01/28 06:12:14;;;;;;;5.80;2.33;;;;;;;-1.08;100.00;101772.41;4952036;28;20131;-72
2023/01/28 06:14:52;;;;;;;7.73;2.33;;;;;;;-1.09;100.00;101775.81;4949058;28;20066;-73
2023/01/28 06:17:47;;;;;;;5.53;1.60;;;;;;;-0.97;100.00;101776.56;4944230;28;20035;-73
2023/01/28 06:20:21;;;;;;;4.80;1.80;;;;;;;-0.91;100.00;101787.28;4944450;28;20156;-73
2023/01/28 06:22:54;;;;;;;5.80;2.23;;;;;;;-0.81;100.00;101777.44;4950824;28;20175;-72
2023/01/28 06:25:19;;;;;;;5.90;1.90;;;;;;;-0.77;100.00;101789.81;4947365;28;20562;-73
2023/01/28 06:27:46;;;;;;;6.50;2.17;;;;;;;-0.73;100.00;101786.59;4949169;28;20085;-73
2023/01/28 06:30:11;;;;;;;7.00;2.30;;;;;;;-0.71;100.00;101785.91;4957823;28;20031;-73
2023/01/28 06:32:37;;;;;;;7.07;2.43;;;;;;;-0.73;100.00;101789.19;5029714;23;20065;-76
2023/01/28 06:35:03;;;;;;;8.40;2.30;;;;;;;-0.71;100.00;101784.97;5007156;28;20046;-76
2023/01/28 06:37:28;;;;;;;6.90;1.63;;;;;;;-0.68;100.00;101785.19;5006938;28;20033;-76
2023/01/28 06:39:53;;;;;;;5.33;2.10;;;;;;;-0.60;100.00;101789.13;5004807;28;20068;-76
2023/01/28 06:42:19;;;;;;;8.07;2.00;;;;;;;-0.60;100.00;101793.38;5009822;28;20519;-76
2023/01/28 06:44:44;;;;;;;6.67;1.77;;;;;;;-0.57;100.00;101786.72;5007884;28;20025;-76
2023/01/28 06:47:09;;;;;;;5.83;2.20;;;;;;;-0.48;100.00;101795.00;5007365;28;20053;-76
2023/01/28 06:49:38;;;;;;;5.33;1.53;;;;;;;-0.46;100.00;101788.22;5002406;28;20046;-76
2023/01/28 06:52:03;;;;;;;5.73;1.70;;;;;;;-0.45;100.00;101796.88;5007839;28;20076;-76
2023/01/28 06:54:29;;;;;;;8.47;3.20;;;;;;;-0.49;100.00;101793.22;5001901;28;20102;-76
2023/01/28 06:56:54;;;;;;;4.70;1.83;;;;;;;-0.43;100.00;101795.28;5004514;28;20049;-76
2023/01/28 06:59:20;;;;;;;5.60;2.13;;;;;;;-0.36;100.00;101805.22;5006119;28;20025;-77
2023/01/28 07:01:45;;;;;;;5.63;2.00;;;;;;;-0.35;100.00;101790.53;5007217;28;20445;-76
2023/01/28 07:04:11;;;;;;;4.50;1.87;;;;;;;-0.34;100.00;101800.09;5006978;28;20030;-76
2023/01/28 07:06:36;;;;;;;6.53;2.33;;;;;;;-0.43;100.00;101792.69;5005011;28;20053;-76
2023/01/28 07:09:01;;;;;;;6.73;2.20;;;;;;;-0.49;100.00;101798.41;5001474;28;20047;-76
2023/01/28 07:11:26;;;;;;;5.43;2.57;;;;;;;-0.47;100.00;101795.94;5004670;28;20148;-77
2023/01/28 07:13:52;;;;;;;6.13;2.00;;;;;;;-0.37;100.00;101793.03;5003448;28;20095;-76
2023/01/28 07:16:17;;;;;;;7.30;2.57;;;;;;;-0.35;100.00;101790.53;5007180;28;20061;-76
2023/01/28 07:18:43;;;;;;;6.93;1.60;;;;;;;-0.32;100.00;101799.38;5006596;28;20121;-76
2023/01/28 07:21:08;;;;;;;5.43;1.63;;;;;;;-0.27;100.00;101795.38;5006189;28;20113;-76
2023/01/28 07:23:33;;;;;;;6.03;2.10;;;;;;;-0.30;100.00;101802.09;5006862;28;20455;-76
2023/01/28 07:26:02;;;;;;;7.57;2.83;;;;;;;-0.40;100.00;101797.16;5004290;28;20129;-77
2023/01/28 07:28:28;;;;;;;3.60;1.87;;;;;;;-0.48;100.00;101799.31;5008550;28;20033;-77
2023/01/28 07:30:53;;;;;;;10.93;2.57;;;;;;;-0.41;100.00;101801.47;5003057;28;20519;-77
2023/01/28 07:33:19;;;;;;;4.73;1.90;;;;;;;-0.29;100.00;101806.47;5004582;28;20033;-77
2023/01/28 07:35:45;;;;;;;5.13;1.90;;;;;;;-0.23;100.00;101794.75;5004078;28;20564;-77
2023/01/28 07:38:11;;;;;;;5.00;1.93;;;;;;;-0.13;100.00;101809.16;5006157;28;20532;-77
2023/01/28 07:40:36;;;;;;;6.00;2.23;;;;;;;-0.05;100.00;101802.69;5006079;28;20066;-77
2023/01/28 07:43:01;;;;;;;4.73;1.83;;;;;;;0.04;100.00;101802.31;5003337;28;20030;-77
2023/01/28 07:45:35;;;;;;;8.13;2.90;;;;;;;0.08;100.00;101804.28;5006321;28;20034;-76
2023/01/28 07:48:03;;;;;;;4.77;2.30;;;;;;;0.10;100.00;101801.75;5003806;28;20041;-77
2023/01/28 07:50:31;;;;;;;4.67;1.70;;;;;;;0.09;100.00;101795.69;5006350;28;20034;-77
2023/01/28 07:52:57;;;;;;;7.37;1.90;;;;;;;0.10;100.00;101796.56;5008873;28;20567;-77
2023/01/28 07:55:23;;;;;;;7.57;2.57;;;;;;;-0.02;100.00;101802.88;5010543;28;20188;-76
2023/01/28 07:57:58;;;;;;;6.30;2.47;;;;;;;0.04;100.00;101801.44;5010391;28;20064;-77
2023/01/28 08:00:26;;;;;;;6.97;2.50;;;;;;;0.02;100.00;101809.13;5010556;28;20029;-77
2023/01/28 08:02:56;;;;;;;4.30;2.00;;;;;;;-0.06;100.00;101803.47;5004949;28;20535;-77
2023/01/28 08:05:23;;;;;;;5.83;2.33;;;;;;;0.01;100.00;101806.44;5003632;28;20057;-77
2023/01/28 08:07:48;;;;;;;7.47;3.00;;;;;;;0.08;100.00;101808.56;5002902;28;20038;-77
2023/01/28 08:10:16;;;;;;;9.80;3.33;;;;;;;0.14;100.00;101811.53;5003948;28;20096;-77
2023/01/28 08:12:57;;;;;;;6.13;3.07;;;;;;;0.21;100.00;101805.88;5012285;28;20044;-76
2023/01/28 08:15:23;;;;;;;8.05;1.77;;;;;;;0.15;99.44;101811.59;5002155;28;20037;-77
2023/01/28 08:17:49;;;;;;;7.17;2.17;;;;;;;0.09;99.83;101811.25;5009529;28;20030;-77
2023/01/28 08:20:14;;;;;;;8.80;1.90;;;;;;;0.15;100.00;101819.38;5003806;28;20544;-77
2023/01/28 08:22:40;;;;;;;3.83;1.53;;;;;;;0.28;100.00;101820.97;5005544;28;20064;-76
2023/01/28 08:25:05;;;;;;;3.60;1.40;;;;;;;0.38;99.32;101824.97;5007615;28;20076;-77
2023/01/28 08:27:31;;;;;;;6.20;1.67;;;;;;;0.46;100.00;101822.81;5009165;28;20192;-76
2023/01/28 08:29:56;;;;;;;5.07;1.67;;;;;;;0.39;98.50;101814.69;5005425;28;20068;-77
2023/01/28 08:32:21;;;;;;;4.80;1.90;;;;;;;0.26;97.61;101819.97;5007460;28;20065;-77
2023/01/28 08:34:47;;;;;;;7.20;3.25;;;;;;;0.31;97.72;101831.53;5003296;28;20068;-77
2023/01/28 08:37:12;;;;;;;6.93;2.72;;;;;;;0.35;97.69;101824.81;5010334;28;20092;-77
2023/01/28 08:39:37;;;;;;;8.48;1.80;;;;;;;0.44;97.15;101821.00;5010128;28;20060;-77
2023/01/28 08:42:04;;;;;;;4.57;1.10;;;;;;;0.41;94.57;101826.03;5006392;28;20038;-77
2023/01/28 08:44:30;;;;;;;4.13;1.27;;;;;;;0.50;96.51;101829.94;5009378;28;20029;-77
2023/01/28 08:46:55;;;;;;;5.88;2.33;;;;;;;0.43;95.06;101828.72;5011292;28;20557;-77
2023/01/28 08:49:21;;;;;;;7.63;1.88;;;;;;;0.41;95.39;101825.16;5010916;28;20480;-77
2023/01/28 08:51:46;;;;;;;5.40;2.33;;;;;;;0.36;95.86;101831.78;5010990;28;20029;-77
2023/01/28 08:54:12;;;;;;;5.13;1.27;;;;;;;0.37;95.27;101829.28;5008718;28;20030;-77
2023/01/28 08:56:37;;;;;;;2.15;1.23;;;;;;;0.44;94.22;101823.59;5005334;28;20117;-77
2023/01/28 08:59:03;;;;;;;6.90;1.63;;;;;;;0.61;95.24;101831.47;5004227;28;20117;-77
2023/01/28 09:01:28;;;;;;;1.95;1.20;;;;;;;0.73;94.25;101829.50;5004203;28;20045;-77
2023/01/28 09:03:54;;;;;;;2.65;1.40;;;;;;;0.87;93.48;101833.75;5006527;28;20045;-77
2023/01/28 09:06:19;;;;;;;3.13;1.40;;;;;;;0.86;93.00;101834.59;5004159;28;20065;-77
2023/01/28 09:08:45;;;;;;;3.58;1.75;;;;;;;0.94;91.68;101832.38;5007064;28;20481;-76
2023/01/28 09:11:10;;;;;;;5.82;2.22;;;;;;;1.06;91.90;101830.44;4999519;28;20085;-77
2023/01/28 09:13:35;;;;;;;3.13;1.23;;;;;;;1.20;91.69;101838.06;5004596;28;20029;-76
2023/01/28 09:16:04;;;;;;;2.70;1.23;;;;;;;1.26;91.25;101844.50;5010057;28;20042;-76
2023/01/28 09:18:29;;;;;;;4.18;1.35;;;;;;;1.23;90.42;101839.16;5012904;28;20025;-77
2023/01/28 09:20:54;;;;;;;5.20;1.65;;;;;;;1.16;88.94;101849.13;5006519;28;20513;-77
2023/01/28 09:23:20;;;;;;;3.72;1.48;;;;;;;1.17;89.35;101849.19;5005125;28;20497;-76
2023/01/28 09:25:45;;;;;;;5.55;2.03;;;;;;;0.90;87.42;101852.94;5008115;28;20044;-76
2023/01/28 09:28:10;;;;;;;3.78;1.60;;;;;;;0.91;88.42;101849.53;5007690;28;20532;-76
2023/01/28 09:30:36;;;;;;;3.20;1.30;;;;;;;0.94;88.66;101839.28;5010424;28;20054;-77
2023/01/28 09:33:02;;;;;;;5.22;1.92;;;;;;;0.93;88.93;101841.00;5007973;28;20077;-76
2023/01/28 09:35:27;;;;;;;4.07;1.25;;;;;;;1.05;88.39;101838.19;5004786;28;20049;-77
2023/01/28 09:37:56;;;;;;;2.17;0.77;;;;;;;1.10;87.87;101847.09;5006601;28;20037;-76
2023/01/28 09:40:30;;;;;;;3.90;1.90;;;;;;;1.24;87.74;101856.53;5012873;28;20124;-76
2023/01/28 09:42:56;;;;;;;2.20;0.98;;;;;;;1.30;87.24;101850.75;5016523;28;20507;-76
2023/01/28 09:45:36;;;;;;;3.30;1.40;;;;;;;1.40;85.90;101862.53;5013869;28;20046;-76
2023/01/28 09:48:03;;;;;;;2.17;0.95;;;;;;;1.41;83.64;101859.09;5010927;28;20505;-77
2023/01/28 09:50:39;;;;;;;3.30;0.88;;;;;;;1.39;83.82;101863.34;5012201;28;20029;-76
2023/01/28 09:53:27;;;;;;;4.30;1.25;;;;;;;1.21;82.35;101869.38;5010509;28;20057;-77
2023/01/28 09:56:01;;;;;;;2.33;1.45;;;;;;;1.23;83.54;101874.63;5008482;28;20026;-76
2023/01/28 09:58:27;;;;;;;1.30;0.77;;;;;;;0.92;81.87;101872.09;5011380;28;20038;-76
2023/01/28 10:01:10;;;;;;;6.22;1.20;;;;;;;0.91;83.70;101875.50;5011214;28;20045;-77
2023/01/28 10:03:53;;;;;;;4.25;2.03;;;;;;;0.99;84.22;101876.81;5013129;28;20145;-77
2023/01/28 10:06:43;;;;;;;8.52;1.52;;;;;;;0.73;82.83;101884.06;5012112;28;20038;-77
2023/01/28 10:09:28;;;;;;;4.20;1.52;;;;;;;0.68;82.90;101885.53;5011713;28;20065;-76
2023/01/28 10:12:14;;;;;;;99.18;35.58;;;;;;;0.62;83.21;101882.59;5010235;28;20046;-76
2023/01/28 10:14:53;;;;;;;44.75;41.03;;;;;;;0.68;83.60;101888.13;5006827;28;20034;-76
2023/01/28 10:17:34;;;;;;;6.07;1.75;;;;;;;0.52;78.76;101882.91;5005151;28;20164;-76
2023/01/28 10:20:04;;;;;;;5.73;2.07;;;;;;;0.40;80.49;101885.72;5006258;28;20133;-76
2023/01/28 10:22:45;;;;;;;6.57;2.00;;;;;;;0.57;81.34;101895.31;5010424;28;20037;-76
2023/01/28 10:25:18;;;;;;;4.30;1.52;;;;;;;0.77;81.00;101891.25;5009141;28;20404;-76
2023/01/28 10:27:44;;;;;;;;;;;;;;;0.81;79.06;101890.63;5011564;28;20038;-76
2023/01/28 10:30:24;;;;;;;6.00;1.97;;;;;;;0.95;80.11;101887.88;5012638;28;20059;-76
2023/01/28 10:33:03;;;;;;;5.32;1.85;;;;;;;0.98;79.07;101899.34;5007978;28;20554;-76
2023/01/28 10:35:37;;;;;;;5.63;1.73;;;;;;;0.95;78.96;101895.69;5008482;28;20117;-77
2023/01/28 10:38:07;;;;;;;3.97;1.42;;;;;;;1.07;80.28;101885.94;5011695;28;20736;-77
2023/01/28 10:40:34;;;;;;;4.35;1.55;;;;;;;0.95;78.52;101895.69;5012008;28;20066;-76
2023/01/28 10:42:59;;;;;;;5.03;1.90;;;;;;;0.83;77.34;101888.97;5005650;28;20076;-76
2023/01/28 10:45:39;;;;;;;4.07;1.60;;;;;;;0.90;79.09;101886.72;5009680;28;20441;-76
2023/01/28 10:48:21;;;;;;;4.28;1.75;;;;;;;0.97;77.93;101887.16;5009861;28;20126;-76
2023/01/28 10:50:53;;;;;;;3.83;1.67;;;;;;;0.96;76.75;101885.34;5008137;28;20060;-76
2023/01/28 10:53:18;;;;;;;10.47;1.70;;;;;;;0.92;78.07;101887.69;5011221;28;20494;-76
2023/01/28 10:55:57;;;;;;;4.22;1.85;;;;;;;0.96;78.06;101876.66;5013293;28;20334;-76
2023/01/28 10:58:25;;;;;;;5.65;1.70;;;;;;;1.04;77.45;101883.16;5004215;28;20024;-75
2023/01/28 11:00:53;;;;;;;4.82;1.90;;;;;;;0.93;76.74;101887.78;5007893;28;20404;-76
2023/01/28 11:03:19;;;;;;;5.30;1.75;;;;;;;1.01;76.22;101885.59;5004033;28;20033;-76
2023/01/28 11:05:53;;;;;;;4.55;1.77;;;;;;;0.97;77.00;101876.75;5001720;28;20384;-76
2023/01/28 11:08:23;;;;;;;5.35;1.27;;;;;;;0.83;75.33;101878.59;5004596;28;20161;-77
2023/01/28 11:10:49;;;;;;;4.40;1.73;;;;;;;0.85;76.51;101884.75;5005317;28;20080;-76
2023/01/28 11:13:20;;;;;;;5.35;1.90;;;;;;;0.83;75.07;101882.91;5005832;28;20500;-76
2023/01/28 11:15:48;;;;;;;6.07;1.80;;;;;;;0.88;76.52;101884.03;5008644;28;20052;-76
2023/01/28 11:18:28;;;;;;;5.22;1.58;;;;;;;0.93;75.90;101885.19;5012251;28;20030;-76
2023/01/28 11:20:57;;;;;;;4.28;1.58;;;;;;;0.99;75.70;101869.03;5010723;28;20037;-76
2023/01/28 11:23:29;;;;;;;3.67;1.48;;;;;;;1.06;75.37;101872.03;5011449;28;20076;-76
2023/01/28 11:26:00;;;;;;;5.70;1.75;;;;;;;1.12;74.15;101873.19;5010240;28;20038;-76
2023/01/28 11:28:26;;;;;;;7.20;1.98;;;;;;;1.01;75.23;101864.81;5009135;28;20374;-76
2023/01/28 11:30:57;;;;;;;7.72;3.20;;;;;;;0.88;74.15;101861.53;5009347;28;20040;-76
2023/01/28 11:33:35;;;;;;;7.10;2.20;;;;;;;0.85;74.29;101874.38;5009381;28;20480;-77
2023/01/28 11:36:08;;;;;;;6.20;2.83;;;;;;;0.82;74.77;101870.72;5000517;28;20497;-77
2023/01/28 11:38:33;;;;;;;6.40;2.30;;;;;;;0.92;76.17;101869.50;5004870;28;20117;-77
2023/01/28 11:41:02;;;;;;;6.85;2.80;;;;;;;1.01;76.05;101863.09;5003257;28;20125;-76
2023/01/28 11:43:30;;;;;;;7.95;2.80;;;;;;;1.03;76.54;101865.78;5003154;28;20401;-77
2023/01/28 11:46:16;;;;;;;5.03;1.85;;;;;;;0.91;75.52;101876.41;5000257;28;20437;-77
2023/01/28 11:49:20;;;;;;;5.82;1.85;;;;;;;0.86;76.33;101868.38;5011537;28;20038;-77
2023/01/28 11:51:56;;;;;;;5.63;1.92;;;;;;;0.86;77.07;101867.47;5010529;28;20038;-76
2023/01/28 11:55:09;;;;;;;5.10;1.45;;;;;;;1.08;77.06;101864.34;5003932;28;20489;-76
2023/01/28 11:57:49;;;;;;;4.63;1.60;;;;;;;1.21;77.64;101866.78;4973793;28;20053;-77
2023/01/28 12:00:52;;;;;;;6.05;2.03;;;;;;;1.23;75.82;101859.03;5006484;28;20124;-77
2023/01/28 12:03:27;;;;;;;;;;;;;;;1.40;76.50;101855.63;5007389;28;20033;-77
2023/01/28 12:06:04;;;;;;;4.93;1.48;;;;;;;1.58;75.92;101841.78;5011123;28;20295;-77
2023/01/28 12:08:40;;;;;;;5.43;1.30;;;;;;;1.59;73.24;101851.38;5009182;28;20037;-77